sensor_id;sensor_type;location;lat;lon;timestamp;P1;P2;P0
62631;PMS5003;48703;51.248;-0.546;2022-10-16T00:00:37;4.83;3.73;
62631;PMS5003;48703;51.248;-0.546;2022-10-16T00:03:38;7.25;4.51;
62631;PMS5003;48703;51.248;-0.546;2022-10-16T00:06:39;2.84;2.44;
62631;PMS5003;48703;51.248;-0.546;2022-10-16T00:09:41;3.57;3.23;
62631;PMS5003;48703;51.248;-0.546;2022-10-16T00:12:42;3.10;2.20;
62631;PMS5003;48703;51.248;-0.546;2022-10-16T00:15:44;3.39;2.36;
62631;PMS5003;48703;51.248;-0.546;2022-10-16T00:18:45;2.60;1.70;
62631;PMS5003;48703;51.248;-0.546;2022-10-16T00:21:47;4.14;3.12;
62631;PMS5003;48703;51.248;-0.546;2022-10-16T00:24:47;3.51;2.36;
62631;PMS5003;48703;51.248;-0.546;2022-10-16T00:27:49;2.90;1.97;
62631;PMS5003;48703;51.248;-0.546;2022-10-16T00:30:51;2.49;2.49;
62631;PMS5003;48703;51.248;-0.546;2022-10-16T00:33:52;4.40;2.47;
62631;PMS5003;48703;51.248;-0.546;2022-10-16T00:36:54;2.73;1.87;
62631;PMS5003;48703;51.248;-0.546;2022-10-16T00:39:55;5.04;2.47;
62631;PMS5003;48703;51.248;-0.546;2022-10-16T00:42:57;4.03;1.80;
62631;PMS5003;48703;51.248;-0.546;2022-10-16T00:45:59;4.34;2.83;
62631;PMS5003;48703;51.248;-0.546;2022-10-16T00:49:00;2.93;2.61;
62631;PMS5003;48703;51.248;-0.546;2022-10-16T00:52:02;3.06;1.74;
62631;PMS5003;48703;51.248;-0.546;2022-10-16T00:55:03;3.71;1.91;
62631;PMS5003;48703;51.248;-0.546;2022-10-16T00:58:05;4.17;1.86;
62631;PMS5003;48703;51.248;-0.546;2022-10-16T01:01:06;2.86;2.61;
62631;PMS5003;48703;51.248;-0.546;2022-10-16T01:04:08;2.14;2.14;
62631;PMS5003;48703;51.248;-0.546;2022-10-16T01:07:12;2.87;2.14;
62631;PMS5003;48703;51.248;-0.546;2022-10-16T01:10:14;4.29;2.24;
62631;PMS5003;48703;51.248;-0.546;2022-10-16T01:13:13;3.29;2.99;
62631;PMS5003;48703;51.248;-0.546;2022-10-16T01:16:15;3.61;2.87;
62631;PMS5003;48703;51.248;-0.546;2022-10-16T01:19:16;4.29;3.09;
62631;PMS5003;48703;51.248;-0.546;2022-10-16T01:22:17;3.69;2.17;
62631;PMS5003;48703;51.248;-0.546;2022-10-16T01:25:20;3.13;2.31;
62631;PMS5003;48703;51.248;-0.546;2022-10-16T01:28:21;3.00;1.77;
62631;PMS5003;48703;51.248;-0.546;2022-10-16T01:31:24;3.54;2.79;
62631;PMS5003;48703;51.248;-0.546;2022-10-16T01:34:25;4.59;2.56;
62631;PMS5003;48703;51.248;-0.546;2022-10-16T01:37:27;2.26;1.73;
62631;PMS5003;48703;51.248;-0.546;2022-10-16T01:40:26;2.69;2.61;
62631;PMS5003;48703;51.248;-0.546;2022-10-16T01:43:28;3.94;2.76;
62631;PMS5003;48703;51.248;-0.546;2022-10-16T01:46:29;3.53;2.54;
62631;PMS5003;48703;51.248;-0.546;2022-10-16T01:49:31;3.99;2.59;
62631;PMS5003;48703;51.248;-0.546;2022-10-16T01:52:33;2.33;2.14;
62631;PMS5003;48703;51.248;-0.546;2022-10-16T01:55:35;4.24;3.23;
62631;PMS5003;48703;51.248;-0.546;2022-10-16T01:58:40;4.94;3.30;
62631;PMS5003;48703;51.248;-0.546;2022-10-16T02:01:38;2.41;2.16;
62631;PMS5003;48703;51.248;-0.546;2022-10-16T02:04:39;2.63;1.24;
62631;PMS5003;48703;51.248;-0.546;2022-10-16T02:07:40;3.13;2.13;
62631;PMS5003;48703;51.248;-0.546;2022-10-16T02:10:41;4.31;2.20;
62631;PMS5003;48703;51.248;-0.546;2022-10-16T02:13:43;1.37;1.23;
62631;PMS5003;48703;51.248;-0.546;2022-10-16T02:16:45;3.53;2.44;
62631;PMS5003;48703;51.248;-0.546;2022-10-16T02:19:46;3.13;1.76;
62631;PMS5003;48703;51.248;-0.546;2022-10-16T02:22:48;0.84;0.84;
62631;PMS5003;48703;51.248;-0.546;2022-10-16T02:25:49;1.87;1.29;
62631;PMS5003;48703;51.248;-0.546;2022-10-16T02:28:52;2.17;1.66;
62631;PMS5003;48703;51.248;-0.546;2022-10-16T02:31:54;2.13;1.47;
62631;PMS5003;48703;51.248;-0.546;2022-10-16T02:34:54;2.16;1.21;
62631;PMS5003;48703;51.248;-0.546;2022-10-16T02:37:55;1.01;1.01;
62631;PMS5003;48703;51.248;-0.546;2022-10-16T02:40:57;1.76;1.10;
62631;PMS5003;48703;51.248;-0.546;2022-10-16T02:43:58;2.67;2.62;
62631;PMS5003;48703;51.248;-0.546;2022-10-16T02:47:00;1.74;1.60;
62631;PMS5003;48703;51.248;-0.546;2022-10-16T02:50:01;3.06;1.88;
62631;PMS5003;48703;51.248;-0.546;2022-10-16T02:53:02;2.17;0.97;
62631;PMS5003;48703;51.248;-0.546;2022-10-16T02:56:04;2.13;1.75;
62631;PMS5003;48703;51.248;-0.546;2022-10-16T02:59:06;0.54;0.54;
62631;PMS5003;48703;51.248;-0.546;2022-10-16T03:02:07;1.67;1.07;
62631;PMS5003;48703;51.248;-0.546;2022-10-16T03:05:09;1.21;0.70;
62631;PMS5003;48703;51.248;-0.546;2022-10-16T03:08:10;1.39;0.51;
62631;PMS5003;48703;51.248;-0.546;2022-10-16T03:11:12;2.29;1.07;
62631;PMS5003;48703;51.248;-0.546;2022-10-16T03:14:14;2.19;0.99;
62631;PMS5003;48703;51.248;-0.546;2022-10-16T03:17:15;0.94;0.94;
62631;PMS5003;48703;51.248;-0.546;2022-10-16T03:20:17;2.86;0.91;
62631;PMS5003;48703;51.248;-0.546;2022-10-16T03:23:18;1.84;0.84;
62631;PMS5003;48703;51.248;-0.546;2022-10-16T03:26:20;2.27;1.07;
62631;PMS5003;48703;51.248;-0.546;2022-10-16T03:29:21;1.27;0.61;
62631;PMS5003;48703;51.248;-0.546;2022-10-16T03:32:23;2.39;1.53;
62631;PMS5003;48703;51.248;-0.546;2022-10-16T03:35:25;2.80;1.33;
62631;PMS5003;48703;51.248;-0.546;2022-10-16T03:38:26;1.96;1.04;
62631;PMS5003;48703;51.248;-0.546;2022-10-16T03:41:28;1.90;1.61;
62631;PMS5003;48703;51.248;-0.546;2022-10-16T03:44:29;2.30;1.54;
62631;PMS5003;48703;51.248;-0.546;2022-10-16T03:47:31;2.69;1.60;
62631;PMS5003;48703;51.248;-0.546;2022-10-16T03:50:33;2.71;1.51;
62631;PMS5003;48703;51.248;-0.546;2022-10-16T03:53:34;1.93;1.44;
62631;PMS5003;48703;51.248;-0.546;2022-10-16T03:56:36;2.20;0.66;
62631;PMS5003;48703;51.248;-0.546;2022-10-16T03:59:37;2.23;0.81;
62631;PMS5003;48703;51.248;-0.546;2022-10-16T04:02:39;2.91;1.26;
62631;PMS5003;48703;51.248;-0.546;2022-10-16T04:05:41;2.56;1.70;
62631;PMS5003;48703;51.248;-0.546;2022-10-16T04:08:42;1.40;1.40;
62631;PMS5003;48703;51.248;-0.546;2022-10-16T04:11:44;2.16;1.47;
62631;PMS5003;48703;51.248;-0.546;2022-10-16T04:14:45;3.13;2.36;
62631;PMS5003;48703;51.248;-0.546;2022-10-16T04:17:47;0.91;0.81;
62631;PMS5003;48703;51.248;-0.546;2022-10-16T04:20:48;3.39;1.49;
62631;PMS5003;48703;51.248;-0.546;2022-10-16T04:23:50;2.44;1.71;
62631;PMS5003;48703;51.248;-0.546;2022-10-16T04:26:51;2.44;1.47;
62631;PMS5003;48703;51.248;-0.546;2022-10-16T04:29:53;3.31;2.61;
62631;PMS5003;48703;51.248;-0.546;2022-10-16T04:32:54;1.76;1.14;
62631;PMS5003;48703;51.248;-0.546;2022-10-16T04:35:56;2.11;1.29;
62631;PMS5003;48703;51.248;-0.546;2022-10-16T04:38:57;3.21;1.93;
62631;PMS5003;48703;51.248;-0.546;2022-10-16T04:41:59;2.61;1.11;
62631;PMS5003;48703;51.248;-0.546;2022-10-16T04:45:01;3.84;1.89;
62631;PMS5003;48703;51.248;-0.546;2022-10-16T04:48:02;2.94;0.66;
62631;PMS5003;48703;51.248;-0.546;2022-10-16T04:51:04;2.34;1.56;
62631;PMS5003;48703;51.248;-0.546;2022-10-16T04:54:05;1.30;1.30;
62631;PMS5003;48703;51.248;-0.546;2022-10-16T04:57:07;3.94;1.86;
62631;PMS5003;48703;51.248;-0.546;2022-10-16T05:00:09;3.19;2.16;
62631;PMS5003;48703;51.248;-0.546;2022-10-16T05:03:10;3.38;2.07;
62631;PMS5003;48703;51.248;-0.546;2022-10-16T05:06:11;1.80;1.39;
62631;PMS5003;48703;51.248;-0.546;2022-10-16T05:09:13;2.59;2.23;
62631;PMS5003;48703;51.248;-0.546;2022-10-16T05:12:14;1.86;0.94;
62631;PMS5003;48703;51.248;-0.546;2022-10-16T05:15:16;1.09;0.57;
62631;PMS5003;48703;51.248;-0.546;2022-10-16T05:18:17;1.96;1.61;
62631;PMS5003;48703;51.248;-0.546;2022-10-16T05:21:19;2.34;1.21;
62631;PMS5003;48703;51.248;-0.546;2022-10-16T05:24:21;2.56;1.50;
62631;PMS5003;48703;51.248;-0.546;2022-10-16T05:27:22;3.79;2.41;
62631;PMS5003;48703;51.248;-0.546;2022-10-16T05:30:24;2.30;2.11;
62631;PMS5003;48703;51.248;-0.546;2022-10-16T05:33:25;3.23;2.20;
62631;PMS5003;48703;51.248;-0.546;2022-10-16T05:36:27;3.26;2.04;
62631;PMS5003;48703;51.248;-0.546;2022-10-16T05:39:28;2.24;1.47;
62631;PMS5003;48703;51.248;-0.546;2022-10-16T05:42:30;1.99;1.43;
62631;PMS5003;48703;51.248;-0.546;2022-10-16T05:45:31;4.00;1.36;
62631;PMS5003;48703;51.248;-0.546;2022-10-16T05:48:33;2.33;1.86;
62631;PMS5003;48703;51.248;-0.546;2022-10-16T05:51:35;1.36;1.04;
62631;PMS5003;48703;51.248;-0.546;2022-10-16T05:54:36;3.63;1.09;
62631;PMS5003;48703;51.248;-0.546;2022-10-16T05:57:38;2.67;1.26;
62631;PMS5003;48703;51.248;-0.546;2022-10-16T06:00:39;3.04;1.19;
62631;PMS5003;48703;51.248;-0.546;2022-10-16T06:03:41;1.67;1.54;
62631;PMS5003;48703;51.248;-0.546;2022-10-16T06:06:43;2.47;1.39;
62631;PMS5003;48703;51.248;-0.546;2022-10-16T06:09:47;2.94;1.41;
62631;PMS5003;48703;51.248;-0.546;2022-10-16T06:12:46;3.30;1.81;
62631;PMS5003;48703;51.248;-0.546;2022-10-16T06:15:47;1.97;0.81;
62631;PMS5003;48703;51.248;-0.546;2022-10-16T06:18:50;2.81;1.39;
62631;PMS5003;48703;51.248;-0.546;2022-10-16T06:21:51;2.99;1.33;
62631;PMS5003;48703;51.248;-0.546;2022-10-16T06:24:52;0.94;0.73;
62631;PMS5003;48703;51.248;-0.546;2022-10-16T06:27:54;3.03;1.54;
62631;PMS5003;48703;51.248;-0.546;2022-10-16T06:30:58;1.23;0.67;
62631;PMS5003;48703;51.248;-0.546;2022-10-16T06:33:57;2.07;1.99;
62631;PMS5003;48703;51.248;-0.546;2022-10-16T06:36:58;3.74;2.81;
62631;PMS5003;48703;51.248;-0.546;2022-10-16T06:40:00;3.64;2.06;
62631;PMS5003;48703;51.248;-0.546;2022-10-16T06:43:01;2.73;1.89;
62631;PMS5003;48703;51.248;-0.546;2022-10-16T06:46:04;2.67;1.49;
62631;PMS5003;48703;51.248;-0.546;2022-10-16T06:49:05;2.50;1.90;
62631;PMS5003;48703;51.248;-0.546;2022-10-16T06:52:06;3.76;2.69;
62631;PMS5003;48703;51.248;-0.546;2022-10-16T06:55:08;3.74;2.84;
62631;PMS5003;48703;51.248;-0.546;2022-10-16T06:58:09;2.76;2.34;
62631;PMS5003;48703;51.248;-0.546;2022-10-16T07:01:11;1.77;1.43;
62631;PMS5003;48703;51.248;-0.546;2022-10-16T07:04:12;3.41;2.45;
62631;PMS5003;48703;51.248;-0.546;2022-10-16T07:07:14;1.80;1.70;
62631;PMS5003;48703;51.248;-0.546;2022-10-16T07:10:15;1.87;1.03;
62631;PMS5003;48703;51.248;-0.546;2022-10-16T07:13:17;1.70;0.44;
62631;PMS5003;48703;51.248;-0.546;2022-10-16T07:16:19;3.57;1.96;
62631;PMS5003;48703;51.248;-0.546;2022-10-16T07:19:20;1.86;1.10;
62631;PMS5003;48703;51.248;-0.546;2022-10-16T07:22:21;1.79;1.53;
62631;PMS5003;48703;51.248;-0.546;2022-10-16T07:25:23;2.99;1.99;
62631;PMS5003;48703;51.248;-0.546;2022-10-16T07:28:24;2.59;1.69;
62631;PMS5003;48703;51.248;-0.546;2022-10-16T07:31:26;2.43;0.57;
62631;PMS5003;48703;51.248;-0.546;2022-10-16T07:34:28;1.47;1.39;
62631;PMS5003;48703;51.248;-0.546;2022-10-16T07:37:29;1.81;1.39;
62631;PMS5003;48703;51.248;-0.546;2022-10-16T07:40:31;3.20;2.64;
62631;PMS5003;48703;51.248;-0.546;2022-10-16T07:43:33;2.54;2.00;
62631;PMS5003;48703;51.248;-0.546;2022-10-16T07:46:35;2.59;1.97;
62631;PMS5003;48703;51.248;-0.546;2022-10-16T07:49:36;1.87;1.61;
62631;PMS5003;48703;51.248;-0.546;2022-10-16T07:52:38;1.60;1.56;
62631;PMS5003;48703;51.248;-0.546;2022-10-16T07:55:39;1.66;1.01;
62631;PMS5003;48703;51.248;-0.546;2022-10-16T07:58:41;3.09;1.37;
62631;PMS5003;48703;51.248;-0.546;2022-10-16T08:01:42;3.03;1.26;
62631;PMS5003;48703;51.248;-0.546;2022-10-16T08:04:46;3.04;1.84;
62631;PMS5003;48703;51.248;-0.546;2022-10-16T08:07:48;2.49;1.60;
62631;PMS5003;48703;51.248;-0.546;2022-10-16T08:10:48;3.01;2.19;
62631;PMS5003;48703;51.248;-0.546;2022-10-16T08:13:49;2.40;1.54;
62631;PMS5003;48703;51.248;-0.546;2022-10-16T08:16:50;1.39;0.96;
62631;PMS5003;48703;51.248;-0.546;2022-10-16T08:19:52;4.46;2.51;
62631;PMS5003;48703;51.248;-0.546;2022-10-16T08:22:54;2.13;1.56;
62631;PMS5003;48703;51.248;-0.546;2022-10-16T08:25:55;2.73;2.07;
62631;PMS5003;48703;51.248;-0.546;2022-10-16T08:28:57;2.24;1.37;
62631;PMS5003;48703;51.248;-0.546;2022-10-16T08:31:59;2.83;1.89;
62631;PMS5003;48703;51.248;-0.546;2022-10-16T08:35:00;2.80;1.76;
62631;PMS5003;48703;51.248;-0.546;2022-10-16T08:38:02;3.07;1.43;
62631;PMS5003;48703;51.248;-0.546;2022-10-16T08:41:10;1.56;1.56;
62631;PMS5003;48703;51.248;-0.546;2022-10-16T08:44:09;3.89;1.61;
62631;PMS5003;48703;51.248;-0.546;2022-10-16T08:46:18;1.70;1.31;
62631;PMS5003;48703;51.248;-0.546;2022-10-16T08:49:09;2.61;2.61;
62631;PMS5003;48703;51.248;-0.546;2022-10-16T08:52:12;2.91;1.70;
62631;PMS5003;48703;51.248;-0.546;2022-10-16T08:55:19;3.06;1.47;
62631;PMS5003;48703;51.248;-0.546;2022-10-16T08:58:12;1.63;1.00;
62631;PMS5003;48703;51.248;-0.546;2022-10-16T09:01:13;2.13;2.11;
62631;PMS5003;48703;51.248;-0.546;2022-10-16T09:04:42;2.76;1.99;
62631;PMS5003;48703;51.248;-0.546;2022-10-16T09:07:21;4.30;2.79;
62631;PMS5003;48703;51.248;-0.546;2022-10-16T09:10:28;3.67;2.39;
62631;PMS5003;48703;51.248;-0.546;2022-10-16T09:13:23;3.71;1.84;
62631;PMS5003;48703;51.248;-0.546;2022-10-16T09:16:25;3.07;2.49;
62631;PMS5003;48703;51.248;-0.546;2022-10-16T09:19:23;3.51;2.23;
62631;PMS5003;48703;51.248;-0.546;2022-10-16T09:22:25;3.19;2.14;
62631;PMS5003;48703;51.248;-0.546;2022-10-16T09:25:25;3.50;2.00;
62631;PMS5003;48703;51.248;-0.546;2022-10-16T09:28:26;1.63;1.36;
62631;PMS5003;48703;51.248;-0.546;2022-10-16T09:31:28;2.47;2.09;
62631;PMS5003;48703;51.248;-0.546;2022-10-16T09:34:30;3.19;1.23;
62631;PMS5003;48703;51.248;-0.546;2022-10-16T09:37:31;3.47;2.26;
62631;PMS5003;48703;51.248;-0.546;2022-10-16T09:40:34;1.89;1.89;
62631;PMS5003;48703;51.248;-0.546;2022-10-16T09:43:35;3.31;2.64;
62631;PMS5003;48703;51.248;-0.546;2022-10-16T09:46:36;2.91;2.23;
62631;PMS5003;48703;51.248;-0.546;2022-10-16T09:49:37;2.34;1.27;
62631;PMS5003;48703;51.248;-0.546;2022-10-16T09:52:38;2.51;2.09;
62631;PMS5003;48703;51.248;-0.546;2022-10-16T09:55:48;1.31;1.31;
62631;PMS5003;48703;51.248;-0.546;2022-10-16T09:58:42;2.34;1.87;
62631;PMS5003;48703;51.248;-0.546;2022-10-16T10:01:44;3.61;2.51;
62631;PMS5003;48703;51.248;-0.546;2022-10-16T10:04:47;3.04;1.96;
62631;PMS5003;48703;51.248;-0.546;2022-10-16T10:07:46;2.63;1.46;
62631;PMS5003;48703;51.248;-0.546;2022-10-16T10:10:48;3.24;1.80;
62631;PMS5003;48703;51.248;-0.546;2022-10-16T10:13:49;3.26;1.60;
62631;PMS5003;48703;51.248;-0.546;2022-10-16T10:16:52;2.20;1.64;
62631;PMS5003;48703;51.248;-0.546;2022-10-16T10:19:53;2.03;1.60;
62631;PMS5003;48703;51.248;-0.546;2022-10-16T10:22:54;3.53;1.54;
62631;PMS5003;48703;51.248;-0.546;2022-10-16T10:25:56;2.10;1.80;
62631;PMS5003;48703;51.248;-0.546;2022-10-16T10:28:59;2.77;2.59;
62631;PMS5003;48703;51.248;-0.546;2022-10-16T10:32:02;3.07;2.04;
62631;PMS5003;48703;51.248;-0.546;2022-10-16T10:35:04;2.69;1.87;
62631;PMS5003;48703;51.248;-0.546;2022-10-16T10:38:05;3.11;2.21;
62631;PMS5003;48703;51.248;-0.546;2022-10-16T10:41:08;3.13;2.16;
62631;PMS5003;48703;51.248;-0.546;2022-10-16T10:44:07;3.51;2.39;
62631;PMS5003;48703;51.248;-0.546;2022-10-16T10:47:08;1.06;1.06;
62631;PMS5003;48703;51.248;-0.546;2022-10-16T10:50:10;2.71;2.44;
62631;PMS5003;48703;51.248;-0.546;2022-10-16T10:53:11;2.00;1.26;
62631;PMS5003;48703;51.248;-0.546;2022-10-16T10:56:15;3.01;2.57;
62631;PMS5003;48703;51.248;-0.546;2022-10-16T10:59:17;4.86;2.24;
62631;PMS5003;48703;51.248;-0.546;2022-10-16T11:02:16;1.86;1.23;
62631;PMS5003;48703;51.248;-0.546;2022-10-16T11:05:19;2.91;2.40;
62631;PMS5003;48703;51.248;-0.546;2022-10-16T11:08:17;1.84;1.76;
62631;PMS5003;48703;51.248;-0.546;2022-10-16T11:11:20;1.43;1.04;
62631;PMS5003;48703;51.248;-0.546;2022-10-16T11:14:21;2.34;2.00;
62631;PMS5003;48703;51.248;-0.546;2022-10-16T11:17:22;2.47;1.74;
62631;PMS5003;48703;51.248;-0.546;2022-10-16T11:20:24;3.17;1.27;
62631;PMS5003;48703;51.248;-0.546;2022-10-16T11:23:25;2.11;1.00;
62631;PMS5003;48703;51.248;-0.546;2022-10-16T11:26:27;2.36;1.06;
62631;PMS5003;48703;51.248;-0.546;2022-10-16T11:29:28;3.64;1.70;
62631;PMS5003;48703;51.248;-0.546;2022-10-16T11:32:31;2.13;1.40;
62631;PMS5003;48703;51.248;-0.546;2022-10-16T11:35:37;1.10;1.10;
62631;PMS5003;48703;51.248;-0.546;2022-10-16T11:38:33;3.49;1.30;
62631;PMS5003;48703;51.248;-0.546;2022-10-16T11:41:34;1.70;0.86;
62631;PMS5003;48703;51.248;-0.546;2022-10-16T11:44:41;2.89;1.24;
62631;PMS5003;48703;51.248;-0.546;2022-10-16T11:47:37;3.07;2.26;
62631;PMS5003;48703;51.248;-0.546;2022-10-16T11:50:39;3.24;2.60;
62631;PMS5003;48703;51.248;-0.546;2022-10-16T11:53:42;2.87;2.00;
62631;PMS5003;48703;51.248;-0.546;2022-10-16T11:56:41;2.97;2.54;
62631;PMS5003;48703;51.248;-0.546;2022-10-16T11:59:44;2.40;1.54;
62631;PMS5003;48703;51.248;-0.546;2022-10-16T12:02:48;2.84;2.41;
62631;PMS5003;48703;51.248;-0.546;2022-10-16T12:05:52;2.73;2.34;
62631;PMS5003;48703;51.248;-0.546;2022-10-16T12:08:47;2.53;1.57;
62631;PMS5003;48703;51.248;-0.546;2022-10-16T12:11:48;3.46;2.83;
62631;PMS5003;48703;51.248;-0.546;2022-10-16T12:14:58;3.87;2.40;
62631;PMS5003;48703;51.248;-0.546;2022-10-16T12:17:52;3.10;2.09;
62631;PMS5003;48703;51.248;-0.546;2022-10-16T12:20:54;2.79;2.01;
62631;PMS5003;48703;51.248;-0.546;2022-10-16T12:23:55;2.39;0.97;
62631;PMS5003;48703;51.248;-0.546;2022-10-16T12:26:56;2.84;1.46;
62631;PMS5003;48703;51.248;-0.546;2022-10-16T12:29:58;2.97;2.51;
62631;PMS5003;48703;51.248;-0.546;2022-10-16T12:33:00;2.31;2.01;
62631;PMS5003;48703;51.248;-0.546;2022-10-16T12:36:01;2.57;1.84;
62631;PMS5003;48703;51.248;-0.546;2022-10-16T12:39:02;2.51;1.97;
62631;PMS5003;48703;51.248;-0.546;2022-10-16T12:42:04;1.91;1.33;
62631;PMS5003;48703;51.248;-0.546;2022-10-16T12:45:21;3.29;2.89;
62631;PMS5003;48703;51.248;-0.546;2022-10-16T12:48:18;2.74;1.93;
62631;PMS5003;48703;51.248;-0.546;2022-10-16T12:51:10;1.66;1.20;
62631;PMS5003;48703;51.248;-0.546;2022-10-16T12:54:12;3.71;1.90;
62631;PMS5003;48703;51.248;-0.546;2022-10-16T12:57:24;3.21;2.23;
62631;PMS5003;48703;51.248;-0.546;2022-10-16T13:00:14;2.53;2.53;
62631;PMS5003;48703;51.248;-0.546;2022-10-16T13:03:22;3.23;2.46;
62631;PMS5003;48703;51.248;-0.546;2022-10-16T13:06:18;3.06;2.14;
62631;PMS5003;48703;51.248;-0.546;2022-10-16T13:09:25;1.43;0.93;
62631;PMS5003;48703;51.248;-0.546;2022-10-16T13:12:24;2.91;2.70;
62631;PMS5003;48703;51.248;-0.546;2022-10-16T13:15:23;2.27;2.14;
62631;PMS5003;48703;51.248;-0.546;2022-10-16T13:18:22;3.76;2.11;
62631;PMS5003;48703;51.248;-0.546;2022-10-16T13:21:28;2.40;2.03;
62631;PMS5003;48703;51.248;-0.546;2022-10-16T13:24:29;2.29;1.39;
62631;PMS5003;48703;51.248;-0.546;2022-10-16T13:27:29;2.96;1.77;
62631;PMS5003;48703;51.248;-0.546;2022-10-16T13:30:28;4.30;2.21;
62631;PMS5003;48703;51.248;-0.546;2022-10-16T13:33:31;2.89;2.40;
62631;PMS5003;48703;51.248;-0.546;2022-10-16T13:36:33;2.19;1.37;
62631;PMS5003;48703;51.248;-0.546;2022-10-16T13:39:32;3.77;2.36;
62631;PMS5003;48703;51.248;-0.546;2022-10-16T13:42:33;2.34;2.16;
62631;PMS5003;48703;51.248;-0.546;2022-10-16T13:45:34;4.14;3.54;
62631;PMS5003;48703;51.248;-0.546;2022-10-16T13:48:36;1.91;1.76;
62631;PMS5003;48703;51.248;-0.546;2022-10-16T13:51:37;3.40;2.17;
62631;PMS5003;48703;51.248;-0.546;2022-10-16T13:54:39;2.47;2.04;
62631;PMS5003;48703;51.248;-0.546;2022-10-16T13:57:40;2.66;1.93;
62631;PMS5003;48703;51.248;-0.546;2022-10-16T14:00:52;3.84;2.04;
62631;PMS5003;48703;51.248;-0.546;2022-10-16T14:03:43;3.30;2.70;
62631;PMS5003;48703;51.248;-0.546;2022-10-16T14:06:46;4.34;2.99;
62631;PMS5003;48703;51.248;-0.546;2022-10-16T14:09:47;2.33;2.14;
62631;PMS5003;48703;51.248;-0.546;2022-10-16T14:12:53;2.64;2.47;
62631;PMS5003;48703;51.248;-0.546;2022-10-16T14:15:49;2.77;2.59;
62631;PMS5003;48703;51.248;-0.546;2022-10-16T14:18:57;6.03;4.45;
62631;PMS5003;48703;51.248;-0.546;2022-10-16T14:21:52;2.46;2.31;
62631;PMS5003;48703;51.248;-0.546;2022-10-16T14:24:53;2.41;2.07;
62631;PMS5003;48703;51.248;-0.546;2022-10-16T14:27:57;2.27;2.01;
62631;PMS5003;48703;51.248;-0.546;2022-10-16T14:30:57;2.60;2.56;
62631;PMS5003;48703;51.248;-0.546;2022-10-16T14:33:58;3.60;2.31;
62631;PMS5003;48703;51.248;-0.546;2022-10-16T14:36:59;3.29;2.93;
62631;PMS5003;48703;51.248;-0.546;2022-10-16T14:40:00;2.97;2.97;
62631;PMS5003;48703;51.248;-0.546;2022-10-16T14:43:02;4.17;4.17;
62631;PMS5003;48703;51.248;-0.546;2022-10-16T14:46:03;4.03;2.77;
62631;PMS5003;48703;51.248;-0.546;2022-10-16T14:49:12;2.60;1.83;
62631;PMS5003;48703;51.248;-0.546;2022-10-16T14:52:08;5.94;3.54;
62631;PMS5003;48703;51.248;-0.546;2022-10-16T14:55:07;4.43;2.70;
62631;PMS5003;48703;51.248;-0.546;2022-10-16T14:58:09;2.86;1.91;
62631;PMS5003;48703;51.248;-0.546;2022-10-16T15:01:10;3.01;2.37;
62631;PMS5003;48703;51.248;-0.546;2022-10-16T15:04:12;3.76;3.13;
62631;PMS5003;48703;51.248;-0.546;2022-10-16T15:07:13;4.39;3.66;
62631;PMS5003;48703;51.248;-0.546;2022-10-16T15:10:15;3.50;2.67;
62631;PMS5003;48703;51.248;-0.546;2022-10-16T15:13:16;4.64;4.17;
62631;PMS5003;48703;51.248;-0.546;2022-10-16T15:16:17;4.66;3.89;
62631;PMS5003;48703;51.248;-0.546;2022-10-16T15:19:19;3.94;3.43;
62631;PMS5003;48703;51.248;-0.546;2022-10-16T15:22:20;4.04;3.01;
62631;PMS5003;48703;51.248;-0.546;2022-10-16T15:25:26;4.53;3.30;
62631;PMS5003;48703;51.248;-0.546;2022-10-16T15:28:23;4.46;3.41;
62631;PMS5003;48703;51.248;-0.546;2022-10-16T15:31:24;3.91;3.61;
62631;PMS5003;48703;51.248;-0.546;2022-10-16T15:34:26;2.57;2.00;
62631;PMS5003;48703;51.248;-0.546;2022-10-16T15:37:27;3.86;2.40;
62631;PMS5003;48703;51.248;-0.546;2022-10-16T15:40:29;2.44;1.96;
62631;PMS5003;48703;51.248;-0.546;2022-10-16T15:43:30;3.61;2.57;
62631;PMS5003;48703;51.248;-0.546;2022-10-16T15:46:32;2.40;2.34;
62631;PMS5003;48703;51.248;-0.546;2022-10-16T15:49:33;2.49;2.49;
62631;PMS5003;48703;51.248;-0.546;2022-10-16T15:52:35;4.26;3.77;
62631;PMS5003;48703;51.248;-0.546;2022-10-16T15:55:36;4.29;3.34;
62631;PMS5003;48703;51.248;-0.546;2022-10-16T15:58:38;3.53;3.11;
62631;PMS5003;48703;51.248;-0.546;2022-10-16T16:01:39;3.47;3.47;
62631;PMS5003;48703;51.248;-0.546;2022-10-16T16:04:40;3.89;2.99;
62631;PMS5003;48703;51.248;-0.546;2022-10-16T16:07:42;4.16;3.56;
62631;PMS5003;48703;51.248;-0.546;2022-10-16T16:10:43;3.71;2.84;
62631;PMS5003;48703;51.248;-0.546;2022-10-16T16:13:45;6.64;4.03;
62631;PMS5003;48703;51.248;-0.546;2022-10-16T16:16:46;5.04;3.40;
62631;PMS5003;48703;51.248;-0.546;2022-10-16T16:19:48;2.73;2.43;
62631;PMS5003;48703;51.248;-0.546;2022-10-16T16:22:49;3.60;2.94;
62631;PMS5003;48703;51.248;-0.546;2022-10-16T16:26:07;4.69;3.96;
62631;PMS5003;48703;51.248;-0.546;2022-10-16T16:28:53;5.80;3.70;
62631;PMS5003;48703;51.248;-0.546;2022-10-16T16:31:54;6.51;4.79;
62631;PMS5003;48703;51.248;-0.546;2022-10-16T16:34:56;4.74;4.69;
62631;PMS5003;48703;51.248;-0.546;2022-10-16T16:37:57;5.20;3.91;
62631;PMS5003;48703;51.248;-0.546;2022-10-16T16:40:58;5.56;5.00;
62631;PMS5003;48703;51.248;-0.546;2022-10-16T16:44:01;5.63;5.33;
62631;PMS5003;48703;51.248;-0.546;2022-10-16T16:47:01;3.87;3.56;
62631;PMS5003;48703;51.248;-0.546;2022-10-16T16:50:02;5.99;5.23;
62631;PMS5003;48703;51.248;-0.546;2022-10-16T16:53:03;5.30;4.43;
62631;PMS5003;48703;51.248;-0.546;2022-10-16T16:56:05;6.39;5.04;
62631;PMS5003;48703;51.248;-0.546;2022-10-16T16:59:10;4.84;4.84;
62631;PMS5003;48703;51.248;-0.546;2022-10-16T17:02:08;5.04;3.91;
62631;PMS5003;48703;51.248;-0.546;2022-10-16T17:05:10;4.47;4.13;
62631;PMS5003;48703;51.248;-0.546;2022-10-16T17:08:11;4.13;3.94;
62631;PMS5003;48703;51.248;-0.546;2022-10-16T17:11:13;5.37;4.30;
62631;PMS5003;48703;51.248;-0.546;2022-10-16T17:14:14;4.51;4.33;
62631;PMS5003;48703;51.248;-0.546;2022-10-16T17:17:15;4.63;4.16;
62631;PMS5003;48703;51.248;-0.546;2022-10-16T17:20:17;4.87;4.17;
62631;PMS5003;48703;51.248;-0.546;2022-10-16T17:23:19;4.83;4.67;
62631;PMS5003;48703;51.248;-0.546;2022-10-16T17:26:20;6.23;5.54;
62631;PMS5003;48703;51.248;-0.546;2022-10-16T17:29:22;4.81;4.60;
62631;PMS5003;48703;51.248;-0.546;2022-10-16T17:32:23;6.59;5.90;
62631;PMS5003;48703;51.248;-0.546;2022-10-16T17:35:24;5.86;4.94;
62631;PMS5003;48703;51.248;-0.546;2022-10-16T17:38:26;4.71;4.71;
62631;PMS5003;48703;51.248;-0.546;2022-10-16T17:41:27;5.26;4.47;
62631;PMS5003;48703;51.248;-0.546;2022-10-16T17:44:29;6.11;6.11;
62631;PMS5003;48703;51.248;-0.546;2022-10-16T17:47:30;5.20;5.14;
62631;PMS5003;48703;51.248;-0.546;2022-10-16T17:50:32;5.09;5.09;
62631;PMS5003;48703;51.248;-0.546;2022-10-16T17:53:34;6.20;5.47;
62631;PMS5003;48703;51.248;-0.546;2022-10-16T17:56:35;4.83;4.31;
62631;PMS5003;48703;51.248;-0.546;2022-10-16T17:59:36;6.16;5.09;
62631;PMS5003;48703;51.248;-0.546;2022-10-16T18:02:38;4.41;4.27;
62631;PMS5003;48703;51.248;-0.546;2022-10-16T18:05:39;6.00;5.06;
62631;PMS5003;48703;51.248;-0.546;2022-10-16T18:08:41;5.74;5.49;
62631;PMS5003;48703;51.248;-0.546;2022-10-16T18:11:43;6.31;5.41;
62631;PMS5003;48703;51.248;-0.546;2022-10-16T18:14:44;6.19;5.16;
62631;PMS5003;48703;51.248;-0.546;2022-10-16T18:17:46;6.37;5.73;
62631;PMS5003;48703;51.248;-0.546;2022-10-16T18:20:54;5.79;5.64;
62631;PMS5003;48703;51.248;-0.546;2022-10-16T18:23:49;5.20;5.20;
62631;PMS5003;48703;51.248;-0.546;2022-10-16T18:26:50;7.36;6.13;
62631;PMS5003;48703;51.248;-0.546;2022-10-16T18:29:51;6.21;6.09;